Time;durP1;ratioP1;P1;durP2;ratioP2;P2;SDS_P1;SDS_P2;PMS_P1;PMS_P2;Temp;Humidity;BMP_temperature;BMP_pressure;BME280_temperature;BME280_humidity;BME280_pressure;Samples;Min_cycle;Max_cycle;Signal;HPM_P1;HPM_P2
2022/07/29 00:00:11;;;;;;;;;;;;;;;21.18;29.88;98039.06;4863912;29;876;-78
2022/07/29 00:02:36;;;;;;;;;;;;;;;20.94;30.32;98035.59;4846408;29;1145;-78
2022/07/29 00:05:02;;;;;;;;;;;;;;;21.12;30.32;98034.38;4863944;29;882;-79
2022/07/29 00:07:27;;;;;;;;;;;;;;;20.90;30.58;98022.78;4863853;29;947;-78
2022/07/29 00:09:53;;;;;;;;;;;;;;;21.11;30.04;98022.25;4863443;29;1907;-79
2022/07/29 00:12:19;;;;;;;;;;;;;;;21.17;29.97;98031.00;4863482;29;1019;-79
2022/07/29 00:14:44;;;;;;;;;;;;;;;21.03;29.98;98020.81;4842923;29;940;-79
2022/07/29 00:17:10;;;;;;;;;;;;;;;21.02;30.06;98022.06;4842895;29;1089;-78
2022/07/29 00:19:35;;;;;;;;;;;;;;;21.05;29.83;98024.03;4812282;29;993;-79
2022/07/29 00:22:01;;;;;;;;;;;;;;;21.08;29.81;98023.13;4842877;29;916;-79
2022/07/29 00:24:26;;;;;;;;;;;;;;;21.28;29.52;98026.69;4842711;29;1305;-79
2022/07/29 00:26:51;;;;;;;;;;;;;;;21.22;29.76;98027.66;4842743;29;1005;-78
2022/07/29 00:29:17;;;;;;;;;;;;;;;21.06;29.92;98032.06;4842917;29;1978;-78
2022/07/29 00:31:42;;;;;;;;;;;;;;;21.12;29.67;98034.38;4842638;29;925;-78
2022/07/29 00:35:43;;;;;;;;;;;;;;;21.20;29.76;98030.16;4842739;29;1027;-79
2022/07/29 00:36:53;;;;;;;;;;;;;;;21.11;29.95;98039.25;4842547;29;1252;-79
2022/07/29 00:39:19;;;;;;;;;;;;;;;21.32;29.66;98044.41;4842904;29;981;-78
2022/07/29 00:41:44;;;;;;;;;;;;;;;21.14;29.99;98035.53;4842951;29;921;-78
2022/07/29 00:44:10;;;;;;;;;;;;;;;21.01;30.44;98040.28;4842669;29;1126;-79
2022/07/29 00:46:35;;;;;;;;;;;;;;;21.07;30.04;98030.03;4828460;29;1148;-78
2022/07/29 00:49:00;;;;;;;;;;;;;;;21.11;30.34;98021.47;4863508;29;1985;-79
2022/07/29 00:51:26;;;;;;;;;;;;;;;21.03;30.26;98020.81;4817236;29;1065;-79
2022/07/29 00:53:52;;;;;;;;;;;;;;;20.91;30.38;98019.50;4865912;29;1007;-79
2022/07/29 00:56:18;;;;;;;;;;;;;;;21.02;30.38;98019.25;4865667;29;942;-79
2022/07/29 00:58:43;;;;;;;;;;;;;;;21.03;30.18;98020.81;4866394;29;981;-78
2022/07/29 01:01:09;;;;;;;;;;;;;;;21.27;29.81;98021.47;4866917;29;906;-79
2022/07/29 01:03:34;;;;;;;;;;;;;;;21.23;30.06;98023.59;4866673;29;986;-79
2022/07/29 01:05:59;;;;;;;;;;;;;;;21.23;30.29;98018.72;4866424;29;946;-79
2022/07/29 01:08:25;;;;;;;;;;;;;;;21.16;30.14;98024.56;4845732;29;1907;-78
2022/07/29 01:10:50;;;;;;;;;;;;;;;21.24;29.84;98019.50;4845885;29;1000;-79
2022/07/29 01:13:16;;;;;;;;;;;;;;;21.16;29.97;98018.91;4845923;29;1031;-78
2022/07/29 01:15:43;;;;;;;;;;;;;;;21.26;29.86;98011.38;4845378;29;956;-78
2022/07/29 01:18:15;;;;;;;;;;;;;;;20.90;30.34;98009.44;4830132;29;922;-78
2022/07/29 01:20:53;;;;;;;;;;;;;;;20.87;30.79;98006.66;4814822;29;968;-79
2022/07/29 01:23:18;;;;;;;;;;;;;;;20.86;30.51;98007.91;4845529;29;948;-78
2022/07/29 01:25:49;;;;;;;;;;;;;;;20.97;30.48;98014.09;4845602;29;982;-79
2022/07/29 01:28:34;;;;;;;;;;;;;;;21.02;30.36;98005.09;4845233;29;1903;-79
2022/07/29 01:30:59;;;;;;;;;;;;;;;21.13;29.98;98008.47;4845193;29;1073;-79
2022/07/29 01:36:12;;;;;;;;;;;;;;;21.27;29.87;98010.16;4808616;29;1087;-79
2022/07/29 01:38:39;;;;;;;;;;;;;;;21.04;30.00;98011.91;4797211;29;1009;-78
2022/07/29 01:41:04;;;;;;;;;;;;;;;21.18;29.95;98005.09;4808650;29;1014;-79
2022/07/29 01:43:34;;;;;;;;;;;;;;;21.01;30.20;98014.81;4808541;29;982;-79
2022/07/29 01:46:01;;;;;;;;;;;;;;;21.04;30.37;98011.13;4793682;29;982;-79
2022/07/29 01:48:26;;;;;;;;;;;;;;;21.08;29.97;98001.28;4793650;29;1888;-78
2022/07/29 01:50:56;;;;;;;;;;;;;;;21.09;29.88;98004.94;4808919;29;1029;-79
2022/07/29 01:53:25;;;;;;;;;;;;;;;21.21;29.83;98007.06;4808733;29;1121;-79
2022/07/29 01:55:50;;;;;;;;;;;;;;;21.16;29.84;98001.13;4808768;29;1038;-79
2022/07/29 01:58:16;;;;;;;;;;;;;;;21.00;30.09;98001.94;4793501;29;1100;-78
2022/07/29 02:00:41;;;;;;;;;;;;;;;20.90;30.24;98000.16;4793654;29;921;-78
2022/07/29 02:03:10;;;;;;;;;;;;;;;21.20;29.71;98001.84;4808011;29;999;-79
2022/07/29 02:05:36;;;;;;;;;;;;;;;21.10;30.02;97998.03;4808148;29;972;-78
2022/07/29 02:08:02;;;;;;;;;;;;;;;20.92;30.56;98000.50;4829833;29;1904;-78
2022/07/29 02:10:29;;;;;;;;;;;;;;;20.87;30.31;97995.34;4829636;29;969;-79
2022/07/29 02:12:55;;;;;;;;;;;;;;;20.94;30.45;97995.22;4846072;29;909;-79
2022/07/29 02:15:21;;;;;;;;;;;;;;;21.09;30.03;97996.44;4864589;29;966;-79
2022/07/29 02:17:52;;;;;;;;;;;;;;;21.11;30.00;97993.97;4864257;29;978;-78
2022/07/29 02:20:17;;;;;;;;;;;;;;;21.00;30.31;97984.94;4863805;29;927;-78
2022/07/29 02:22:43;;;;;;;;;;;;;;;20.98;30.39;97978.91;4865196;29;1059;-79
2022/07/29 02:25:09;;;;;;;;;;;;;;;21.06;30.15;97986.00;4865077;29;937;-79
2022/07/29 02:27:34;;;;;;;;;;;;;;;21.26;29.85;97977.44;4864198;29;907;-78
2022/07/29 02:30:00;;;;;;;;;;;;;;;21.05;30.09;97990.09;4864750;29;1976;-79
2022/07/29 02:32:27;;;;;;;;;;;;;;;21.13;30.00;97985.81;4865004;29;1076;-79
2022/07/29 02:34:52;;;;;;;;;;;;;;;20.84;30.65;97990.59;4863625;29;931;-78
2022/07/29 02:37:17;;;;;;;;;;;;;;;21.10;30.16;97986.72;4865020;29;1141;-78
2022/07/29 02:39:43;;;;;;;;;;;;;;;21.11;30.08;97991.13;4863719;29;1106;-77
2022/07/29 02:42:10;;;;;;;;;;;;;;;21.20;30.14;97996.97;4863992;29;907;-78
2022/07/29 02:44:35;;;;;;;;;;;;;;;21.21;30.09;97992.13;4865033;29;901;-78
2022/07/29 02:47:03;;;;;;;;;;;;;;;20.97;30.61;98002.78;4844060;29;1071;-79
2022/07/29 02:49:29;;;;;;;;;;;;;;;20.90;30.82;97994.50;4843937;29;1911;-78
2022/07/29 02:51:55;;;;;;;;;;;;;;;20.99;30.58;97997.50;4844269;29;963;-78
2022/07/29 02:54:26;;;;;;;;;;;;;;;21.10;30.13;98003.69;4828843;29;1023;-78
2022/07/29 02:56:54;;;;;;;;;;;;;;;21.13;30.19;97994.31;4844016;29;1109;-79
2022/07/29 02:59:20;;;;;;;;;;;;;;;21.05;30.49;97996.53;4828922;29;993;-79
2022/07/29 03:01:46;;;;;;;;;;;;;;;21.12;30.04;97998.38;4828480;29;1513;-79
2022/07/29 03:04:11;;;;;;;;;;;;;;;20.99;30.30;97998.31;4843637;29;1305;-78
2022/07/29 03:06:37;;;;;;;;;;;;;;;21.05;30.41;98001.41;4828531;29;1030;-78
2022/07/29 03:09:02;;;;;;;;;;;;;;;21.08;30.19;98006.16;4828242;29;1970;-79
2022/07/29 03:11:28;;;;;;;;;;;;;;;21.20;30.23;98007.50;4843874;29;991;-79
2022/07/29 03:13:53;;;;;;;;;;;;;;;21.20;30.38;98011.13;4828022;29;958;-79
2022/07/29 03:16:19;;;;;;;;;;;;;;;21.09;30.36;98010.59;4843410;29;960;-79
2022/07/29 03:18:44;;;;;;;;;;;;;;;21.01;30.64;98012.78;4843926;29;963;-79
2022/07/29 03:21:10;;;;;;;;;;;;;;;21.17;30.11;98020.50;4862058;29;1152;-79
2022/07/29 03:23:35;;;;;;;;;;;;;;;21.18;30.24;98022.06;4862959;29;896;-79
2022/07/29 03:26:01;;;;;;;;;;;;;;;20.81;30.94;98015.69;4864065;29;971;-79
2022/07/29 03:28:27;;;;;;;;;;;;;;;21.20;30.26;98025.28;4846331;29;1911;-78
2022/07/29 03:30:52;;;;;;;;;;;;;;;21.01;30.49;98017.66;4864147;29;976;-79
2022/07/29 03:33:18;;;;;;;;;;;;;;;20.95;30.75;98020.22;4864193;29;951;-79
2022/07/29 03:35:43;;;;;;;;;;;;;;;20.88;31.09;98028.88;4864324;29;1098;-79
2022/07/29 03:38:09;;;;;;;;;;;;;;;20.98;31.03;98038.31;4864041;29;893;-78
2022/07/29 03:40:38;;;;;;;;;;;;;;;20.97;30.81;98029.03;4848198;29;1736;-79
2022/07/29 03:43:03;;;;;;;;;;;;;;;21.06;30.63;98031.28;4860969;29;2012;-79
2022/07/29 03:45:29;;;;;;;;;;;;;;;21.02;30.99;98030.56;4824649;29;1149;-79
2022/07/29 03:47:56;;;;;;;;;;;;;;;21.14;30.48;98032.72;4824853;29;1986;-78
2022/07/29 03:50:22;;;;;;;;;;;;;;;21.03;31.00;98037.81;4809685;29;1045;-79
2022/07/29 03:52:47;;;;;;;;;;;;;;;21.06;30.68;98036.94;4788148;30;935;-79
2022/07/29 03:55:13;;;;;;;;;;;;;;;21.02;31.03;98036.22;4788826;30;965;-79
2022/07/29 03:57:38;;;;;;;;;;;;;;;21.19;30.66;98035.00;4787471;30;1970;-79
2022/07/29 04:00:05;;;;;;;;;;;;;;;21.02;30.92;98036.22;4772978;30;1633;-79
2022/07/29 04:02:31;;;;;;;;;;;;;;;21.07;30.91;98033.66;4788784;30;1009;-78
2022/07/29 04:04:56;;;;;;;;;;;;;;;21.07;30.92;98032.84;4788181;30;1020;-78
2022/07/29 04:07:22;;;;;;;;;;;;;;;21.02;30.66;98036.22;4752151;30;1907;-78
2022/07/29 04:09:47;;;;;;;;;;;;;;;21.10;30.68;98037.66;4752847;30;1916;-78
2022/07/29 04:12:13;;;;;;;;;;;;;;;20.98;30.93;98035.50;4752594;30;942;-78
2022/07/29 04:14:38;;;;;;;;;;;;;;;21.00;31.12;98036.66;4765455;30;1352;-79
2022/07/29 04:17:04;;;;;;;;;;;;;;;21.13;30.79;98036.75;4770357;30;954;-78
2022/07/29 04:19:29;;;;;;;;;;;;;;;21.10;30.50;98037.66;4770415;30;1100;-79
2022/07/29 04:21:55;;;;;;;;;;;;;;;21.12;30.73;98037.19;4770498;30;1008;-79
2022/07/29 04:24:20;;;;;;;;;;;;;;;21.05;31.07;98047.44;4770355;30;976;-78
2022/07/29 04:26:46;;;;;;;;;;;;;;;21.03;31.26;98032.94;4771963;30;1506;-79
2022/07/29 04:29:11;;;;;;;;;;;;;;;20.86;31.40;98044.69;4774209;30;1915;-78
2022/07/29 04:31:37;;;;;;;;;;;;;;;21.06;31.05;98039.75;4774362;30;1108;-79
2022/07/29 04:34:02;;;;;;;;;;;;;;;21.18;30.91;98041.09;4773911;30;925;-78
2022/07/29 04:36:28;;;;;;;;;;;;;;;21.36;30.72;98037.88;4813070;29;1118;-79
2022/07/29 04:38:53;;;;;;;;;;;;;;;21.10;31.10;98043.31;4836835;29;983;-79
2022/07/29 04:41:19;;;;;;;;;;;;;;;20.90;31.16;98036.91;4848077;29;1632;-78
2022/07/29 04:43:44;;;;;;;;;;;;;;;20.91;31.29;98041.34;4848678;29;994;-78
2022/07/29 04:46:10;;;;;;;;;;;;;;;20.98;31.32;98036.28;4846038;29;1471;-79
2022/07/29 04:48:35;;;;;;;;;;;;;;;21.08;31.19;98040.91;4845970;29;1970;-79
2022/07/29 04:51:01;;;;;;;;;;;;;;;20.93;31.63;98036.03;4844578;29;1488;-79
2022/07/29 04:53:26;;;;;;;;;;;;;;;21.12;31.16;98040.81;4845940;29;1431;-79
2022/07/29 04:55:52;;;;;;;;;;;;;;;21.33;30.84;98040.31;4845825;29;1797;-78
2022/07/29 04:58:17;;;;;;;;;;;;;;;21.28;31.00;98028.72;4845985;29;1477;-78
2022/07/29 05:00:42;;;;;;;;;;;;;;;21.16;31.42;98033.06;4846238;29;2207;-79
2022/07/29 05:03:08;;;;;;;;;;;;;;;21.07;31.34;98032.84;4845923;29;1023;-78
2022/07/29 05:05:33;;;;;;;;;;;;;;;21.02;31.50;98024.91;4846114;29;1064;-78
2022/07/29 05:07:59;;;;;;;;;;;;;;;21.01;31.65;98034.63;4845597;29;1904;-79
2022/07/29 05:10:24;;;;;;;;;;;;;;;21.08;31.62;98025.97;4845701;29;989;-79
2022/07/29 05:12:50;;;;;;;;;;;;;;;20.92;32.13;98031.59;4845926;29;1736;-78
2022/07/29 05:15:16;;;;;;;;;;;;;;;20.97;31.81;98040.34;4822232;29;1070;-78
2022/07/29 05:17:41;;;;;;;;;;;;;;;20.87;32.14;98023.63;4809143;29;1029;-78
2022/07/29 05:20:07;;;;;;;;;;;;;;;21.05;31.72;98035.34;4808796;29;1466;-78
2022/07/29 05:22:33;;;;;;;;;;;;;;;21.23;31.50;98034.91;4824987;29;1422;-78
2022/07/29 05:24:58;;;;;;;;;;;;;;;21.04;31.74;98028.91;4820391;29;1450;-78
2022/07/29 05:27:23;;;;;;;;;;;;;;;21.16;31.38;98030.22;4826965;29;1037;-79
2022/07/29 05:29:49;;;;;;;;;;;;;;;21.11;31.45;98032.78;4827085;29;1982;-79
2022/07/29 05:32:14;;;;;;;;;;;;;;;21.26;31.54;98040.47;4827287;29;899;-79
2022/07/29 05:34:40;;;;;;;;;;;;;;;21.01;31.83;98031.81;4827169;29;964;-79
2022/07/29 05:37:05;;;;;;;;;;;;;;;21.09;31.66;98036.06;4859436;29;1042;-79
2022/07/29 05:39:31;;;;;;;;;;;;;;;20.99;32.16;98032.25;4863684;29;1078;-79
2022/07/29 05:41:56;;;;;;;;;;;;;;;21.11;31.50;98033.56;4844673;29;1399;-79
2022/07/29 05:44:22;;;;;;;;;;;;;;;21.15;31.61;98048.44;4814682;29;965;-78
2022/07/29 05:46:47;;;;;;;;;;;;;;;21.23;31.66;98046.22;4858262;29;1099;-79
2022/07/29 05:49:13;;;;;;;;;;;;;;;21.34;31.47;98046.78;4863474;29;1973;-78
2022/07/29 05:51:38;;;;;;;;;;;;;;;21.09;31.91;98041.72;4832864;29;1038;-79
2022/07/29 05:54:04;;;;;;;;;;;;;;;21.37;31.46;98047.94;4863788;29;998;-79
2022/07/29 05:56:29;;;;;;;;;;;;;;;21.21;31.75;98052.34;4863445;29;991;-79
2022/07/29 05:58:54;;;;;;;;;;;;;;;21.10;31.92;98054.63;4862920;29;1018;-79
2022/07/29 06:01:20;;;;;;;;;;;;;;;21.22;31.52;98051.09;4863716;29;952;-79
2022/07/29 06:03:45;;;;;;;;;;;;;;;21.06;31.88;98042.59;4863224;29;1054;-79
2022/07/29 06:06:11;;;;;;;;;;;;;;;21.06;32.11;98059.56;4862291;29;1489;-79
2022/07/29 06:08:36;;;;;;;;;;;;;;;21.32;31.50;98058.56;4863398;29;1907;-78
2022/07/29 06:11:02;;;;;;;;;;;;;;;21.44;31.17;98062.69;4863228;29;939;-78
2022/07/29 06:13:28;;;;;;;;;;;;;;;21.21;31.67;98055.16;4862885;29;1524;-79
2022/07/29 06:15:53;;;;;;;;;;;;;;;21.02;32.08;98053.97;4832454;29;947;-78
2022/07/29 06:18:20;;;;;;;;;;;;;;;21.32;31.51;98055.72;4864861;29;1056;-78
2022/07/29 06:20:46;;;;;;;;;;;;;;;21.11;31.86;98056.22;4883976;29;932;-79
2022/07/29 06:23:11;;;;;;;;;;;;;;;21.28;31.69;98054.97;4882985;29;1438;-79
2022/07/29 06:25:37;;;;;;;;;;;;;;;21.33;31.62;98054.47;4883662;29;955;-79
2022/07/29 06:28:03;;;;;;;;;;;;;;;21.41;31.38;98051.50;4883678;29;1970;-79
2022/07/29 06:30:28;;;;;;;;;;;;;;;21.38;31.57;98058.03;4882377;29;1364;-79
2022/07/29 06:32:54;;;;;;;;;;;;;;;21.42;31.69;98058.72;4866375;29;1731;-78
2022/07/29 06:35:19;;;;;;;;;;;;;;;21.30;31.87;98055.38;4885205;29;994;-79
2022/07/29 06:37:45;;;;;;;;;;;;;;;21.37;31.85;98051.56;4883454;29;1011;-78
2022/07/29 06:42:54;;;;;;;;;;;;;;;21.19;32.06;98054.81;4883728;29;925;-79
2022/07/29 06:45:20;;;;;;;;;;;;;;;21.13;31.97;98065.03;4881853;29;1527;-79
2022/07/29 06:47:45;;;;;;;;;;;;;;;21.26;32.00;98057.47;4850219;29;1040;-78
2022/07/29 06:50:13;;;;;;;;;;;;;;;21.19;32.12;98046.31;4875450;29;1902;-78
2022/07/29 06:52:39;;;;;;;;;;;;;;;21.28;31.51;98049.31;4882616;29;1468;-78
2022/07/29 06:55:06;;;;;;;;;;;;;;;21.24;31.79;98048.63;4883441;29;974;-79
2022/07/29 06:57:31;;;;;;;;;;;;;;;21.08;31.98;98045.75;4880947;29;1374;-79
2022/07/29 06:59:57;;;;;;;;;;;;;;;21.22;31.89;98051.09;4882915;29;889;-78
2022/07/29 07:02:22;;;;;;;;;;;;;;;21.44;31.34;98056.25;4883519;29;1001;-79
2022/07/29 07:04:48;;;;;;;;;;;;;;;21.37;31.48;98050.78;4883096;29;959;-79
2022/07/29 07:07:13;;;;;;;;;;;;;;;21.40;31.33;98050.69;4882458;29;1404;-77
2022/07/29 07:09:39;;;;;;;;;;;;;;;21.34;31.73;98055.28;4882550;29;1968;-79
2022/07/29 07:12:04;;;;;;;;;;;;;;;21.22;31.71;98056.75;4865471;29;1043;-79
2022/07/29 07:14:30;;;;;;;;;;;;;;;21.50;31.53;98045.97;4882828;29;978;-79
2022/07/29 07:16:55;;;;;;;;;;;;;;;21.57;31.37;98062.81;4882778;29;920;-79
2022/07/29 07:19:20;;;;;;;;;;;;;;;21.55;31.32;98051.09;4882681;29;942;-79
2022/07/29 07:21:46;;;;;;;;;;;;;;;21.35;31.60;98058.91;4881862;29;1400;-79
2022/07/29 07:24:11;;;;;;;;;;;;;;;21.34;31.36;98063.75;4882874;29;887;-80
2022/07/29 07:26:39;;;;;;;;;;;;;;;21.29;31.65;98062.22;4882949;29;898;-79
2022/07/29 07:29:04;;;;;;;;;;;;;;;21.30;31.69;98058.22;4882654;29;1976;-79
2022/07/29 07:31:30;;;;;;;;;;;;;;;21.39;31.52;98059.59;4882433;29;976;-79
2022/07/29 07:33:55;;;;;;;;;;;;;;;21.36;31.63;98060.50;4865090;29;977;-79
2022/07/29 07:36:21;;;;;;;;;;;;;;;21.41;31.26;98071.31;4882506;29;1101;-79
2022/07/29 07:38:46;;;;;;;;;;;;;;;21.65;30.86;98066.22;4881851;29;1340;-78
2022/07/29 07:41:12;;;;;;;;;;;;;;;21.46;31.28;98067.94;4881699;29;1352;-78
2022/07/29 07:43:37;;;;;;;;;;;;;;;21.40;31.45;98062.00;4882395;29;872;-79
2022/07/29 07:46:03;;;;;;;;;;;;;;;21.36;31.82;98071.84;4882560;29;928;-79
2022/07/29 07:48:28;;;;;;;;;;;;;;;21.18;32.17;98075.84;4882566;29;1903;-78
2022/07/29 07:50:54;;;;;;;;;;;;;;;21.32;31.66;98064.22;4882571;29;940;-79
2022/07/29 07:53:19;;;;;;;;;;;;;;;21.39;31.29;98076.59;4881339;29;1982;-80
2022/07/29 07:55:44;;;;;;;;;;;;;;;21.49;31.33;98069.88;4882533;29;932;-78
2022/07/29 07:58:10;;;;;;;;;;;;;;;21.58;31.18;98072.88;4881702;29;1367;-79
2022/07/29 08:00:35;;;;;;;;;;;;;;;21.37;31.82;98067.75;4882253;29;872;-79
2022/07/29 08:03:01;;;;;;;;;;;;;;;21.36;31.71;98066.97;4880901;29;1347;-79
2022/07/29 08:05:26;;;;;;;;;;;;;;;21.57;31.11;98076.97;4881386;29;1572;-79
2022/07/29 08:07:52;;;;;;;;;;;;;;;21.46;31.68;98065.13;4883151;29;1702;-78
2022/07/29 08:10:51;;;;;;;;;;;;;;;21.39;31.52;98059.59;4882099;29;1970;-79
2022/07/29 08:13:06;;;;;;;;;;;;;;;21.46;31.67;98065.13;4882104;29;942;-79
2022/07/29 08:15:32;;;;;;;;;;;;;;;21.56;31.24;98069.72;4882329;29;927;-79
2022/07/29 08:17:57;;;;;;;;;;;;;;;21.46;31.59;98062.28;4864751;29;1017;-78
2022/07/29 08:20:23;;;;;;;;;;;;;;;21.58;31.21;98072.88;4882040;29;1014;-79
2022/07/29 08:22:48;;;;;;;;;;;;;;;21.55;31.48;98068.09;4826797;29;1396;-79
2022/07/29 08:25:14;;;;;;;;;;;;;;;21.56;31.39;98061.22;4842095;29;1286;-78
2022/07/29 08:27:39;;;;;;;;;;;;;;;21.54;31.58;98069.34;4842994;29;946;-78
2022/07/29 08:30:05;;;;;;;;;;;;;;;21.51;31.39;98073.06;4842867;29;1984;-79
2022/07/29 08:32:31;;;;;;;;;;;;;;;21.59;31.52;98069.59;4841397;29;1487;-79
2022/07/29 08:34:56;;;;;;;;;;;;;;;21.59;31.41;98072.44;4842687;29;1099;-78
2022/07/29 08:37:22;;;;;;;;;;;;;;;21.61;31.36;98063.50;4841373;29;1657;-79
2022/07/29 08:39:47;;;;;;;;;;;;;;;21.57;31.46;98065.63;4842635;29;1026;-78
2022/07/29 08:42:13;;;;;;;;;;;;;;;21.47;31.80;98072.34;4842545;29;1640;-79
2022/07/29 08:44:38;;;;;;;;;;;;;;;21.43;31.73;98061.13;4842761;29;963;-78
2022/07/29 08:47:04;;;;;;;;;;;;;;;21.66;31.21;98062.16;4842493;29;930;-78
2022/07/29 08:49:30;;;;;;;;;;;;;;;21.50;31.64;98060.97;4842914;29;1912;-78
2022/07/29 08:51:55;;;;;;;;;;;;;;;21.38;31.98;98058.03;4842882;29;994;-78
2022/07/29 08:54:22;;;;;;;;;;;;;;;21.45;31.58;98055.00;4855304;29;1478;-79
2022/07/29 08:56:50;;;;;;;;;;;;;;;21.51;31.59;98056.09;4881646;29;904;-78
2022/07/29 08:59:16;;;;;;;;;;;;;;;21.60;31.58;98044.91;4861130;29;1086;-79
2022/07/29 09:01:42;;;;;;;;;;;;;;;21.68;31.44;98043.50;4844282;29;1025;-78
2022/07/29 09:04:09;;;;;;;;;;;;;;;21.78;31.51;98038.78;4861098;29;948;-78
2022/07/29 09:06:36;;;;;;;;;;;;;;;21.61;31.44;98052.19;4861238;29;1009;-79
2022/07/29 09:09:01;;;;;;;;;;;;;;;21.66;31.68;98057.31;4842154;29;1911;-79
2022/07/29 09:11:27;;;;;;;;;;;;;;;21.70;31.35;98043.84;4842729;29;940;-79
2022/07/29 09:13:52;;;;;;;;;;;;;;;21.59;31.65;98037.66;4844719;29;1025;-79
2022/07/29 09:16:17;;;;;;;;;;;;;;;21.68;31.56;98037.84;4844781;29;1414;-79
2022/07/29 09:18:43;;;;;;;;;;;;;;;21.62;31.55;98033.94;4825828;29;1506;-79
2022/07/29 09:24:06;;;;;;;;;;;;;;;21.54;31.93;98041.81;4826347;29;1339;-77
2022/07/29 09:26:32;;;;;;;;;;;;;;;21.51;31.93;98044.75;4827394;29;959;-79
2022/07/29 09:28:58;;;;;;;;;;;;;;;21.53;32.01;98042.28;4790560;30;1912;-79
2022/07/29 09:31:36;;;;;;;;;;;;;;;21.75;31.62;98036.84;4772744;30;990;-79
2022/07/29 09:34:02;;;;;;;;;;;;;;;21.41;32.32;98023.97;4772069;30;1545;-79
2022/07/29 09:36:27;;;;;;;;;;;;;;;21.41;32.18;98028.84;4772681;30;1022;-79
2022/07/29 09:38:59;;;;;;;;;;;;;;;21.48;31.82;98034.31;4772741;30;976;-78
2022/07/29 09:41:25;;;;;;;;;;;;;;;21.74;31.45;98035.25;4773229;30;1027;-79
2022/07/29 09:43:56;;;;;;;;;;;;;;;21.67;31.75;98036.25;4758255;30;939;-79
2022/07/29 09:46:22;;;;;;;;;;;;;;;21.58;32.07;98033.25;4772695;30;1246;-79
2022/07/29 09:49:10;;;;;;;;;;;;;;;21.61;32.04;98032.38;4761853;29;1979;-78
2022/07/29 09:51:36;;;;;;;;;;;;;;;21.84;31.35;98037.78;4772208;30;1521;-80
2022/07/29 09:54:04;;;;;;;;;;;;;;;21.54;32.12;98035.38;4772793;30;1105;-78
2022/07/29 09:56:42;;;;;;;;;;;;;;;21.67;31.69;98033.41;4772725;30;961;-79
2022/07/29 09:59:08;;;;;;;;;;;;;;;21.58;31.80;98027.56;4757256;30;940;-77
2022/07/29 10:01:34;;;;;;;;;;;;;;;21.73;31.64;98025.97;4757697;30;1188;-79
2022/07/29 10:03:59;;;;;;;;;;;;;;;21.87;31.45;98015.50;4772498;30;1125;-79
2022/07/29 10:06:24;;;;;;;;;;;;;;;21.62;31.86;98021.84;4753849;30;1356;-79
2022/07/29 10:08:50;;;;;;;;;;;;;;;21.85;31.53;98028.06;4740072;30;1904;-79
2022/07/29 10:11:16;;;;;;;;;;;;;;;21.61;31.77;98032.38;4740380;30;1040;-79
2022/07/29 10:13:42;;;;;;;;;;;;;;;21.67;32.14;98019.25;4754467;30;1313;-79
2022/07/29 10:16:08;;;;;;;;;;;;;;;21.72;31.64;98024.38;4743811;30;2176;-79
2022/07/29 10:18:33;;;;;;;;;;;;;;;21.56;31.97;98024.41;4754741;30;946;-79
2022/07/29 10:21:00;;;;;;;;;;;;;;;21.83;31.79;98027.72;4754552;30;991;-78
2022/07/29 10:23:27;;;;;;;;;;;;;;;21.84;31.84;98017.97;4736945;30;1449;-79
2022/07/29 10:25:52;;;;;;;;;;;;;;;21.82;31.63;98025.34;4754403;30;959;-79
2022/07/29 10:28:18;;;;;;;;;;;;;;;21.77;31.68;98018.16;4758096;30;1900;-78
2022/07/29 10:30:44;;;;;;;;;;;;;;;21.65;31.94;98020.94;4799146;29;918;-79
2022/07/29 10:33:22;;;;;;;;;;;;;;;21.80;31.62;98011.59;4792814;29;952;-79
2022/07/29 10:35:57;;;;;;;;;;;;;;;21.81;31.74;98018.88;4793155;29;1115;-79
2022/07/29 10:38:28;;;;;;;;;;;;;;;21.64;32.02;98020.13;4807206;29;1604;-80
2022/07/29 10:41:27;;;;;;;;;;;;;;;21.73;32.11;98023.13;4822989;29;1032;-78
2022/07/29 10:43:53;;;;;;;;;;;;;;;21.58;32.23;98017.03;4844020;29;970;-79
2022/07/29 10:46:42;;;;;;;;;;;;;;;21.70;32.16;98015.50;4829252;29;967;-79
2022/07/29 10:49:09;;;;;;;;;;;;;;;21.67;31.86;98016.41;4807343;29;2001;-79
2022/07/29 10:51:50;;;;;;;;;;;;;;;21.47;32.26;98021.41;4807772;29;1022;-79
2022/07/29 10:54:18;;;;;;;;;;;;;;;21.54;32.07;98021.22;4797646;29;1511;-78
2022/07/29 10:56:44;;;;;;;;;;;;;;;21.74;31.76;98012.59;4780525;29;2132;-79
2022/07/29 10:59:23;;;;;;;;;;;;;;;21.69;32.12;98013.94;4778904;29;1402;-79
2022/07/29 11:01:52;;;;;;;;;;;;;;;21.61;32.09;98009.72;4789211;29;940;-79
2022/07/29 11:04:36;;;;;;;;;;;;;;;21.60;32.13;98008.09;4774439;30;1014;-79
2022/07/29 11:07:04;;;;;;;;;;;;;;;21.78;31.91;98014.09;4773791;30;1415;-80
2022/07/29 11:09:30;;;;;;;;;;;;;;;21.87;31.74;98009.84;4771070;30;1899;-80
2022/07/29 11:11:58;;;;;;;;;;;;;;;21.87;31.66;98021.16;4771508;30;1038;-78
2022/07/29 11:15:02;;;;;;;;;;;;;;;21.93;31.79;98008.03;4782265;29;964;-79
2022/07/29 11:17:28;;;;;;;;;;;;;;;21.68;32.10;98015.19;4735190;30;1492;-79
2022/07/29 11:20:11;;;;;;;;;;;;;;;21.68;32.34;98009.50;4736206;30;1285;-79
2022/07/29 11:22:37;;;;;;;;;;;;;;;21.53;32.51;98002.63;4735698;30;1018;-79
2022/07/29 11:25:15;;;;;;;;;;;;;;;21.87;31.92;97992.84;4735709;30;1070;-79
2022/07/29 11:27:40;;;;;;;;;;;;;;;21.66;31.94;97999.84;4735511;30;953;-79
2022/07/29 11:30:06;;;;;;;;;;;;;;;21.61;32.27;98004.06;4735128;30;2006;-77
2022/07/29 11:32:38;;;;;;;;;;;;;;;21.46;32.50;98002.84;4721343;30;1278;-79
2022/07/29 11:35:23;;;;;;;;;;;;;;;21.55;32.53;97998.13;4717462;30;1207;-79
2022/07/29 11:38:07;;;;;;;;;;;;;;;21.85;31.94;97996.09;4718201;30;992;-79
2022/07/29 11:40:32;;;;;;;;;;;;;;;21.63;32.12;98006.44;4735060;30;1012;-79
2022/07/29 11:42:57;;;;;;;;;;;;;;;21.70;32.33;97998.53;4717898;30;962;-79
2022/07/29 11:45:23;;;;;;;;;;;;;;;21.80;31.83;97988.16;4717109;30;1672;-78
2022/07/29 11:47:50;;;;;;;;;;;;;;;21.67;32.08;97995.81;4738196;30;923;-79
2022/07/29 11:50:17;;;;;;;;;;;;;;;21.63;32.15;97987.41;4752858;30;1903;-79
2022/07/29 11:52:45;;;;;;;;;;;;;;;21.59;32.28;97989.53;4717784;30;1031;-80
2022/07/29 11:55:17;;;;;;;;;;;;;;;21.76;32.05;97988.25;4703420;30;952;-79
2022/07/29 11:57:46;;;;;;;;;;;;;;;21.83;31.75;97985.22;4717947;30;985;-78
2022/07/29 12:00:14;;;;;;;;;;;;;;;21.83;32.16;97996.56;4717320;30;1653;-78
2022/07/29 12:02:42;;;;;;;;;;;;;;;21.87;31.64;97996.47;4718247;30;964;-78
2022/07/29 12:05:09;;;;;;;;;;;;;;;21.76;31.82;97982.59;4722066;30;971;-79
2022/07/29 12:07:34;;;;;;;;;;;;;;;21.68;32.03;97981.19;4752966;30;993;-79
2022/07/29 12:10:00;;;;;;;;;;;;;;;21.79;31.99;97981.69;4753040;30;1987;-79
2022/07/29 12:12:25;;;;;;;;;;;;;;;21.75;32.20;97980.19;4753159;30;1152;-78
2022/07/29 12:14:51;;;;;;;;;;;;;;;21.90;31.68;97974.94;4771658;29;1339;-78
2022/07/29 12:17:29;;;;;;;;;;;;;;;21.84;31.87;97966.97;4804234;29;1007;-79
2022/07/29 12:19:55;;;;;;;;;;;;;;;21.77;32.13;97958.69;4791674;29;928;-79
2022/07/29 12:22:26;;;;;;;;;;;;;;;21.93;31.63;97965.56;4826190;29;1048;-79
2022/07/29 12:24:52;;;;;;;;;;;;;;;21.53;32.41;97957.34;4842185;29;1904;-79
2022/07/29 12:27:18;;;;;;;;;;;;;;;21.72;32.27;97958.44;4842724;29;1078;-79
2022/07/29 12:29:43;;;;;;;;;;;;;;;21.97;31.91;97952.09;4847769;29;1915;-79
2022/07/29 12:32:08;;;;;;;;;;;;;;;22.04;31.48;97964.00;4806502;29;1004;-78
2022/07/29 12:34:34;;;;;;;;;;;;;;;22.08;31.76;97955.41;4791326;29;1084;-79
2022/07/29 12:37:00;;;;;;;;;;;;;;;22.05;31.60;97953.44;4769493;30;1479;-78
2022/07/29 12:39:27;;;;;;;;;;;;;;;21.94;31.75;97958.63;4770103;30;1467;-79
2022/07/29 12:41:53;;;;;;;;;;;;;;;21.90;32.08;97952.28;4756038;30;1386;-79
2022/07/29 12:44:18;;;;;;;;;;;;;;;21.69;32.36;97954.47;4770491;30;1197;-79
2022/07/29 12:46:46;;;;;;;;;;;;;;;21.88;31.95;97949.09;4771062;30;1026;-78
2022/07/29 12:49:20;;;;;;;;;;;;;;;21.88;31.79;97949.09;4774019;30;1997;-79
2022/07/29 12:51:46;;;;;;;;;;;;;;;22.00;31.82;97942.66;4758993;30;965;-79
2022/07/29 12:54:15;;;;;;;;;;;;;;;21.92;31.71;97944.13;4758354;30;1380;-78
2022/07/29 12:56:43;;;;;;;;;;;;;;;21.93;31.71;97935.19;4773673;30;1003;-79
2022/07/29 12:59:12;;;;;;;;;;;;;;;21.92;31.94;97944.94;4773978;30;1020;-79
2022/07/29 13:01:38;;;;;;;;;;;;;;;21.96;31.64;97933.47;4773639;30;986;-79
2022/07/29 13:04:04;;;;;;;;;;;;;;;21.76;32.25;97934.47;4803209;29;1088;-78
2022/07/29 13:06:37;;;;;;;;;;;;;;;21.83;31.96;97942.75;4809466;29;1137;-78